Time;durP1;ratioP1;P1;durP2;ratioP2;P2;SDS_P1;SDS_P2;PMS_P1;PMS_P2;Temp;Humidity;BMP_temperature;BMP_pressure;BME280_temperature;BME280_humidity;BME280_pressure;Samples;Min_cycle;Max_cycle;Signal;HPM_P1;HPM_P2
2021/12/05 00:16:48;;;;;;;18.00;12.88;;;8.30;99.90;;;;;;6125220;23;20353;-79
2021/12/05 00:17:06;;;;;;;16.35;12.70;;;8.30;99.90;;;;;;6124471;23;20025;-79
2021/12/05 00:20:40;;;;;;;12.70;11.20;;;8.40;99.90;;;;;;6126226;23;20016;-80
2021/12/05 00:23:18;;;;;;;10.30;8.20;;;8.40;99.90;;;;;;6125976;23;20013;-79
2021/12/05 00:25:48;;;;;;;9.98;6.07;;;8.40;99.90;;;;;;6100543;23;19998;-79
2021/12/05 00:39:10;;;;;;;11.52;10.32;;;8.40;99.90;;;;;;6126364;23;20006;-80
2021/12/05 01:02:45;;;;;;;23.17;20.33;;;8.40;99.90;;;;;;6125591;23;20061;-81
2021/12/05 01:08:20;;;;;;;19.00;15.75;;;8.40;99.90;;;;;;6125025;23;20005;-78
2021/12/05 01:11:11;;;;;;;19.00;16.67;;;8.40;99.90;;;;;;6098112;23;20005;-79
2021/12/05 01:14:27;;;;;;;19.88;17.67;;;8.50;99.90;;;;;;6124952;23;20330;-79
2021/12/05 01:16:26;;;;;;;23.40;20.90;;;8.60;99.90;;;;;;6104514;23;20010;-78
2021/12/05 01:18:52;;;;;;;28.67;21.77;;;8.50;99.90;;;;;;6122678;23;20006;-80
2021/12/05 01:21:22;;;;;;;25.48;20.10;;;8.50;99.90;;;;;;6122116;23;20014;-80
2021/12/05 01:23:58;;;;;;;33.80;19.90;;;8.50;99.90;;;;;;6124491;23;20005;-80
2021/12/05 01:32:08;;;;;;;29.40;18.27;;;8.50;99.90;;;;;;6125179;23;20522;-80
2021/12/05 01:45:00;;;;;;;19.30;16.40;;;8.50;99.90;;;;;;6127616;23;20010;-79
2021/12/05 01:58:14;;;;;;;14.88;13.27;;;8.50;99.90;;;;;;6126214;23;20010;-79
2021/12/05 02:39:39;;;;;;;14.18;11.82;;;8.60;99.90;;;;;;6124728;23;20017;-78
2021/12/05 02:42:06;;;;;;;13.20;11.93;;;8.60;99.90;;;;;;6123189;23;20010;-79
2021/12/05 02:44:32;;;;;;;12.88;11.57;;;8.60;99.90;;;;;;6124169;23;20102;-78
2021/12/05 02:47:07;;;;;;;13.38;11.98;;;8.60;99.90;;;;;;6124309;23;20503;-78
2021/12/05 02:49:36;;;;;;;10.70;9.57;;;8.60;99.90;;;;;;6124000;23;20169;-78
2021/12/05 02:52:07;;;;;;;12.50;10.65;;;8.50;99.90;;;;;;6098216;23;20085;-78
2021/12/05 02:54:39;;;;;;;8.73;7.82;;;8.40;99.90;;;;;;6124837;23;20473;-79
2021/12/05 02:57:06;;;;;;;11.25;9.55;;;8.50;99.90;;;;;;6123804;23;20002;-78
2021/12/05 03:02:27;;;;;;;10.27;9.25;;;8.50;99.90;;;;;;6125942;23;20084;-79
2021/12/05 03:04:56;;;;;;;10.63;9.55;;;8.50;99.90;;;;;;6123785;23;20002;-78
2021/12/05 03:07:27;;;;;;;11.68;9.65;;;8.60;99.90;;;;;;6124103;23;20006;-79
2021/12/05 03:09:53;;;;;;;11.88;10.68;;;8.70;99.90;;;;;;6123735;23;20025;-79
2021/12/05 03:12:19;;;;;;;16.50;14.80;;;8.70;99.90;;;;;;6123875;23;20351;-78
2021/12/05 03:14:50;;;;;;;15.25;13.55;;;8.50;99.90;;;;;;6097810;23;20022;-79
2021/12/05 03:17:16;;;;;;;12.88;11.52;;;8.40;99.90;;;;;;6123802;23;20033;-78
2021/12/05 03:19:43;;;;;;;11.88;10.68;;;8.50;99.90;;;;;;6123848;23;20016;-78
2021/12/05 03:22:09;;;;;;;11.63;10.10;;;8.50;99.90;;;;;;6123731;23;20100;-79
2021/12/05 03:24:35;;;;;;;10.90;9.02;;;8.60;99.90;;;;;;6124096;23;20442;-78
2021/12/05 03:27:01;;;;;;;10.30;9.30;;;8.60;99.90;;;;;;6123766;23;20009;-79
2021/12/05 03:29:27;;;;;;;9.23;8.15;;;8.70;99.90;;;;;;6097608;23;20338;-79
2021/12/05 03:31:54;;;;;;;9.38;8.50;;;8.70;99.90;;;;;;6123786;23;20013;-78
2021/12/05 03:34:21;;;;;;;7.35;6.35;;;8.70;99.90;;;;;;6124002;23;20006;-79
2021/12/05 03:36:51;;;;;;;9.60;8.65;;;8.70;99.90;;;;;;6123766;23;20357;-79
2021/12/05 03:39:18;;;;;;;10.98;9.30;;;8.80;99.90;;;;;;6123726;23;20183;-79
2021/12/05 03:41:45;;;;;;;11.90;10.05;;;8.80;99.90;;;;;;6123801;23;20010;-79
2021/12/05 03:44:15;;;;;;;12.00;10.57;;;8.90;99.90;;;;;;6123682;23;20002;-79
2021/12/05 03:46:40;;;;;;;13.13;11.82;;;8.80;99.90;;;;;;6123979;23;20006;-79
2021/12/05 03:49:09;;;;;;;14.20;12.70;;;8.80;99.90;;;;;;6123559;23;20077;-77
2021/12/05 03:51:39;;;;;;;14.68;13.27;;;8.70;99.90;;;;;;6123581;23;20002;-76
2021/12/05 03:54:06;;;;;;;13.38;12.15;;;8.70;99.90;;;;;;6123535;23;19998;-79
2021/12/05 03:56:33;;;;;;;12.05;10.95;;;8.70;99.90;;;;;;6123715;23;20093;-79
2021/12/05 03:58:59;;;;;;;9.63;8.73;;;8.70;99.90;;;;;;6097229;23;20012;-79
2021/12/05 04:01:25;;;;;;;10.60;9.52;;;8.80;99.90;;;;;;6123320;23;20070;-79
2021/12/05 04:03:53;;;;;;;10.75;8.43;;;8.90;99.90;;;;;;6123515;23;20461;-79
2021/12/05 04:06:21;;;;;;;11.48;10.23;;;8.90;99.90;;;;;;6123602;23;20085;-78
2021/12/05 04:08:49;;;;;;;14.48;12.98;;;8.90;99.90;;;;;;6123826;23;19998;-79
2021/12/05 04:11:24;;;;;;;17.48;15.77;;;8.70;99.90;;;;;;6123487;23;20006;-78
2021/12/05 04:13:49;;;;;;;15.30;13.70;;;8.60;99.90;;;;;;6097397;23;20006;-79
2021/12/05 04:16:15;;;;;;;14.13;12.73;;;8.50;99.90;;;;;;6123680;23;20021;-78
2021/12/05 04:18:45;;;;;;;12.05;10.77;;;8.50;99.90;;;;;;6097981;23;20010;-78
2021/12/05 04:21:11;;;;;;;11.70;10.60;;;8.70;99.90;;;;;;6123223;23;20036;-77
2021/12/05 04:23:37;;;;;;;11.77;10.50;;;8.80;99.90;;;;;;6123831;23;20426;-77
2021/12/05 04:26:04;;;;;;;12.98;11.60;;;8.90;99.90;;;;;;6123428;23;20125;-78
2021/12/05 04:28:30;;;;;;;13.20;11.90;;;8.90;99.90;;;;;;6123698;23;20141;-78
2021/12/05 04:30:56;;;;;;;13.35;10.40;;;8.90;99.90;;;;;;6123426;23;20003;-78
2021/12/05 04:33:22;;;;;;;12.20;11.00;;;8.90;99.90;;;;;;6123730;23;19998;-78
2021/12/05 04:35:48;;;;;;;14.10;12.70;;;9.00;99.90;;;;;;6123486;23;20395;-77
2021/12/05 04:38:14;;;;;;;14.70;13.02;;;9.00;99.90;;;;;;6097832;23;20060;-78
2021/12/05 04:40:41;;;;;;;18.83;15.07;;;9.00;99.90;;;;;;6123022;23;20513;-78
2021/12/05 04:43:08;;;;;;;38.22;14.43;;;9.00;99.90;;;;;;6123409;23;20025;-77
2021/12/05 04:45:36;;;;;;;15.25;13.75;;;8.80;99.90;;;;;;6123359;23;20006;-78
2021/12/05 04:48:04;;;;;;;15.02;12.25;;;8.80;99.90;;;;;;6097827;23;20006;-78
2021/12/05 04:50:30;;;;;;;13.57;12.20;;;8.80;99.90;;;;;;6121622;23;20021;-78
2021/12/05 04:52:56;;;;;;;13.90;12.27;;;8.80;99.90;;;;;;6123483;23;20333;-78
2021/12/05 04:55:23;;;;;;;16.52;12.85;;;8.90;99.90;;;;;;6123184;23;20029;-78
2021/12/05 04:57:50;;;;;;;12.95;11.73;;;8.90;99.90;;;;;;6123431;23;20053;-78
2021/12/05 05:00:23;;;;;;;15.00;13.52;;;8.90;99.90;;;;;;6123345;23;20018;-77
2021/12/05 05:02:49;;;;;;;12.07;10.88;;;8.90;99.90;;;;;;6123876;23;20008;-78
2021/12/05 05:05:15;;;;;;;32.78;10.63;;;8.90;99.90;;;;;;6125277;23;20034;-78
2021/12/05 05:07:43;;;;;;;29.20;11.10;;;9.00;99.90;;;;;;6099466;23;20006;-77
2021/12/05 05:10:20;;;;;;;21.75;11.30;;;9.00;99.90;;;;;;6125081;23;20193;-77
2021/12/05 05:12:46;;;;;;;14.52;12.85;;;9.00;99.90;;;;;;6099062;23;20013;-78
2021/12/05 05:15:14;;;;;;;33.60;13.50;;;9.00;99.90;;;;;;6098905;23;20072;-78
2021/12/05 05:17:40;;;;;;;7.88;7.18;;;9.00;99.90;;;;;;6124853;23;20006;-77
2021/12/05 05:20:24;;;;;;;11.68;10.45;;;9.10;99.90;;;;;;6124309;23;20445;-78
2021/12/05 05:47:01;;;;;;;9.88;8.70;;;9.10;99.90;;;;;;6124614;23;20370;-78
2021/12/05 05:52:13;;;;;;;11.57;10.48;;;9.20;99.90;;;;;;6126913;23;20378;-78
2021/12/05 05:54:39;;;;;;;11.18;10.15;;;9.10;99.90;;;;;;6124860;23;20434;-78
2021/12/05 05:57:20;;;;;;;10.85;9.82;;;9.20;99.90;;;;;;6098819;23;20446;-78
2021/12/05 06:00:28;;;;;;;10.13;8.98;;;9.10;99.90;;;;;;6124689;23;20476;-78
2021/12/05 06:05:24;;;;;;;7.40;6.43;;;9.20;99.90;;;;;;6124544;23;20464;-81
2021/12/05 06:07:49;;;;;;;6.93;6.22;;;9.20;99.90;;;;;;6124769;23;20016;-80
2021/12/05 06:10:22;;;;;;;7.07;6.47;;;9.20;99.90;;;;;;6124626;23;20396;-80
2021/12/05 06:12:48;;;;;;;6.35;5.75;;;9.30;99.90;;;;;;6101248;23;20045;-80
2021/12/05 06:15:16;;;;;;;5.80;5.25;;;9.30;99.90;;;;;;6098313;23;20109;-80
2021/12/05 06:17:43;;;;;;;5.07;4.57;;;9.30;99.90;;;;;;6124833;23;19998;-80
2021/12/05 06:20:16;;;;;;;4.30;3.90;;;9.30;99.90;;;;;;6098048;23;20088;-80
2021/12/05 06:22:46;;;;;;;4.82;4.35;;;9.40;99.90;;;;;;6098861;23;20342;-80
2021/12/05 06:25:19;;;;;;;4.55;4.10;;;9.30;99.90;;;;;;6098635;23;20010;-80
2021/12/05 06:27:45;;;;;;;3.75;3.45;;;9.40;99.90;;;;;;6124603;23;20441;-81
2021/12/05 06:30:16;;;;;;;4.43;3.67;;;9.40;99.90;;;;;;6124447;23;20010;-80
2021/12/05 06:38:24;;;;;;;8.45;5.60;;;9.40;99.90;;;;;;6124640;23;20017;-80
2021/12/05 06:48:35;;;;;;;5.55;4.72;;;9.40;99.90;;;;;;6126487;23;20034;-80
2021/12/05 06:51:04;;;;;;;5.03;4.45;;;9.40;99.90;;;;;;6097871;23;20013;-79
2021/12/05 06:53:30;;;;;;;6.03;5.32;;;9.40;99.90;;;;;;6124437;23;19998;-80
2021/12/05 06:55:56;;;;;;;8.93;5.38;;;9.40;99.90;;;;;;6124353;23;20033;-80
2021/12/05 06:58:22;;;;;;;6.47;5.72;;;9.40;99.90;;;;;;6123842;23;20315;-80
2021/12/05 07:00:48;;;;;;;4.82;4.07;;;9.50;99.90;;;;;;6124254;23;20434;-81
2021/12/05 07:03:13;;;;;;;3.88;3.58;;;9.50;99.90;;;;;;6124269;23;20089;-81
2021/12/05 07:08:10;;;;;;;3.50;3.20;;;9.70;99.90;;;;;;6124546;23;20085;-81
2021/12/05 07:10:50;;;;;;;3.97;3.45;;;9.80;99.90;;;;;;6124639;23;20002;-80
2021/12/05 07:19:52;;;;;;;3.55;3.25;;;9.90;99.90;;;;;;6126748;23;20012;-81
2021/12/05 07:21:48;;;;;;;3.95;3.28;;;9.90;99.90;;;;;;6119286;23;20070;-81
2021/12/05 07:40:29;;;;;;;4.15;2.88;;;10.00;99.90;;;;;;6123660;23;20069;-80
2021/12/05 07:43:05;;;;;;;5.53;3.20;;;10.00;99.90;;;;;;6123716;23;20010;-79
2021/12/05 07:45:39;;;;;;;3.88;2.88;;;10.10;99.90;;;;;;6123665;23;20014;-79
2021/12/05 07:48:11;;;;;;;4.05;3.22;;;10.10;99.90;;;;;;6123636;23;20002;-79
2021/12/05 07:50:59;;;;;;;5.40;3.10;;;10.20;99.90;;;;;;6123602;23;20404;-80
2021/12/05 07:53:38;;;;;;;5.70;3.38;;;10.20;99.90;;;;;;6123415;23;20002;-79
2021/12/05 07:56:12;;;;;;;30.83;19.17;;;10.30;99.90;;;;;;6124258;23;20001;-81
2021/12/05 08:14:53;;;;;;;21.23;10.88;;;10.70;99.90;;;;;;6127089;23;20365;-79
2021/12/05 08:17:19;;;;;;;13.88;8.95;;;10.70;99.90;;;;;;6100332;23;20053;-80
2021/12/05 08:19:46;;;;;;;12.65;7.13;;;10.70;99.90;;;;;;6124339;23;20113;-81
2021/12/05 08:22:12;;;;;;;24.80;9.57;;;10.70;99.90;;;;;;6127022;23;20497;-78
2021/12/05 08:24:41;;;;;;;10.80;4.90;;;10.70;99.90;;;;;;6101190;23;20006;-83
2021/12/05 08:27:09;;;;;;;10.73;3.88;;;10.70;99.90;;;;;;6125684;23;19998;-85
2021/12/05 08:29:49;;;;;;;17.50;12.20;;;10.60;99.90;;;;;;6101346;23;20342;-84
2021/12/05 09:21:23;;;;;;;59.88;41.65;;;6.80;99.90;;;;;;6125419;23;20093;-80
2021/12/05 09:23:36;;;;;;;;;;;6.80;99.90;;;;;;6105472;23;20005;-80
2021/12/05 09:29:41;;;;;;;63.42;44.80;;;6.70;99.90;;;;;;6125310;23;20144;-79
2021/12/05 09:40:10;;;;;;;66.05;44.83;;;6.80;99.90;;;;;;6125899;23;20009;-81
2021/12/05 09:51:20;;;;;;;43.28;32.78;;;7.30;99.90;;;;;;6124597;23;20469;-81
2021/12/05 10:07:34;;;;;;;21.92;16.63;;;7.60;99.90;;;;;;6124011;23;20016;-82
2021/12/05 10:15:46;;;;;;;30.33;22.65;;;7.50;99.90;;;;;;6134113;23;20025;-88
2021/12/05 10:27:09;;;;;;;32.90;25.85;;;6.80;99.90;;;;;;6128678;23;20068;-88
2021/12/05 10:36:18;;;;;;;46.17;29.05;;;6.80;99.90;;;;;;6129833;23;20048;-89
2021/12/05 10:38:50;;;;;;;35.17;25.02;;;6.80;99.90;;;;;;6131385;23;20002;-88
2021/12/05 10:43:55;;;;;;;32.97;27.35;;;6.90;99.90;;;;;;6133400;23;20017;-88
2021/12/05 10:46:25;;;;;;;36.47;28.83;;;6.90;99.90;;;;;;6115508;23;20012;-90
2021/12/05 10:49:09;;;;;;;31.95;26.20;;;6.90;99.90;;;;;;6125489;23;20001;-85
2021/12/05 10:51:57;;;;;;;29.25;25.63;;;7.00;99.90;;;;;;6123070;23;20006;-84
2021/12/05 10:54:26;;;;;;;35.35;29.00;;;7.10;99.90;;;;;;6121369;23;20006;-85
2021/12/05 10:56:56;;;;;;;31.70;27.35;;;7.10;99.90;;;;;;6120793;23;20069;-83
2021/12/05 10:59:37;;;;;;;29.92;25.38;;;7.10;99.90;;;;;;6120650;23;20036;-86
2021/12/05 11:02:14;;;;;;;28.25;22.27;;;7.10;99.90;;;;;;6120807;23;20010;-86
2021/12/05 11:04:46;;;;;;;23.85;21.30;;;7.10;99.90;;;;;;6121788;23;20053;-84
2021/12/05 11:07:16;;;;;;;;;;;7.10;99.90;;;;;;6122844;23;20437;-85
2021/12/05 11:09:43;;;;;;;26.50;22.23;;;7.20;99.90;;;;;;6122761;23;19905;-84
2021/12/05 11:12:23;;;;;;;20.33;18.23;;;7.20;99.90;;;;;;6121852;23;20446;-84
2021/12/05 11:14:56;;;;;;;10.98;9.88;;;7.50;99.90;;;;;;6124224;23;20010;-85
2021/12/05 11:17:29;;;;;;;11.80;10.32;;;8.00;99.90;;;;;;6123372;23;20009;-86
2021/12/05 11:20:01;;;;;;;12.23;9.18;;;8.60;99.90;;;;;;6124559;23;20014;-84
2021/12/05 11:22:40;;;;;;;10.13;9.07;;;8.90;99.90;;;;;;6122629;23;20002;-85
2021/12/05 11:25:10;;;;;;;11.73;9.50;;;8.90;99.90;;;;;;6122343;23;20622;-86
2021/12/05 11:27:44;;;;;;;12.68;8.95;;;8.60;99.90;;;;;;6122400;23;20009;-85
2021/12/05 11:30:20;;;;;;;10.68;9.65;;;8.10;99.90;;;;;;6123634;23;20040;-86
2021/12/05 11:32:49;;;;;;;17.73;14.07;;;7.70;99.90;;;;;;6123984;23;20002;-85
2021/12/05 11:35:20;;;;;;;13.73;12.25;;;7.50;99.90;;;;;;6123198;23;20437;-86
2021/12/05 11:38:07;;;;;;;14.25;12.10;;;7.50;99.90;;;;;;6123176;23;20002;-86
2021/12/05 11:40:43;;;;;;;17.33;14.75;;;7.20;99.90;;;;;;6123078;23;20010;-84
2021/12/05 11:43:12;;;;;;;18.20;15.68;;;7.10;99.90;;;;;;6122284;23;20006;-84
2021/12/05 11:46:02;;;;;;;19.02;14.13;;;7.00;99.90;;;;;;6122481;23;20010;-84
2021/12/05 11:48:43;;;;;;;16.25;14.05;;;7.10;99.90;;;;;;6122681;23;20402;-87
2021/12/05 11:51:28;;;;;;;13.57;12.13;;;7.30;99.90;;;;;;6122868;23;20575;-86
2021/12/05 11:54:10;;;;;;;16.05;14.32;;;7.50;99.90;;;;;;6122275;23;20081;-85
2021/12/05 11:56:35;;;;;;;18.90;15.90;;;7.50;99.90;;;;;;6121981;23;20010;-86
2021/12/05 11:59:22;;;;;;;14.25;11.70;;;7.60;99.90;;;;;;6122450;23;20359;-87
2021/12/05 12:01:53;;;;;;;17.55;12.35;;;7.70;99.90;;;;;;6122430;23;20041;-86
2021/12/05 12:04:24;;;;;;;14.25;11.20;;;7.90;99.90;;;;;;6127588;23;20006;-88
2021/12/05 12:07:09;;;;;;;13.18;10.50;;;7.90;99.90;;;;;;6126963;23;19998;-86
2021/12/05 12:09:35;;;;;;;20.33;14.00;;;7.70;99.90;;;;;;6128758;23;20009;-86
2021/12/05 12:12:01;;;;;;;17.15;15.45;;;7.70;99.90;;;;;;6139154;23;20013;-87
2021/12/05 12:14:28;;;;;;;10.32;9.32;;;7.80;99.90;;;;;;6149278;23;20026;-87
2021/12/05 12:16:56;;;;;;;7.88;7.13;;;7.90;99.90;;;;;;6117890;23;20006;-85
2021/12/05 12:19:23;;;;;;;7.22;6.03;;;8.00;99.90;;;;;;6140931;23;20004;-84
2021/12/05 12:21:52;;;;;;;7.18;6.47;;;8.00;99.90;;;;;;6139311;23;20045;-85
2021/12/05 12:24:19;;;;;;;7.40;6.70;;;7.90;99.90;;;;;;6137877;23;20069;-85
2021/12/05 12:26:45;;;;;;;9.70;7.93;;;7.90;99.90;;;;;;6134355;23;20001;-85
2021/12/05 12:29:12;;;;;;;10.65;9.55;;;7.90;99.90;;;;;;6107596;23;20009;-85
2021/12/05 12:31:42;;;;;;;10.52;9.43;;;7.80;99.90;;;;;;6131873;23;20053;-86
2021/12/05 12:34:15;;;;;;;11.30;10.18;;;7.70;99.90;;;;;;6126973;23;20376;-87
2021/12/05 12:36:47;;;;;;;11.70;9.77;;;7.60;99.90;;;;;;6101980;23;20430;-86
2021/12/05 12:39:16;;;;;;;10.20;9.18;;;7.60;99.90;;;;;;6126271;23;20002;-85
2021/12/05 12:41:43;;;;;;;12.38;10.07;;;7.60;99.90;;;;;;6125512;23;20441;-84
2021/12/05 12:44:09;;;;;;;14.38;12.90;;;7.60;99.90;;;;;;6125738;23;20426;-85
2021/12/05 12:46:45;;;;;;;16.38;12.98;;;7.40;99.90;;;;;;6127548;23;20005;-86
2021/12/05 12:49:14;;;;;;;14.80;13.30;;;7.30;99.90;;;;;;6126260;23;20057;-87
2021/12/05 12:51:43;;;;;;;16.33;14.68;;;7.30;99.90;;;;;;6129869;23;20002;-85
2021/12/05 12:54:26;;;;;;;17.42;15.73;;;7.20;99.90;;;;;;6128041;23;20032;-87
2021/12/05 12:57:04;;;;;;;;;;;7.20;99.90;;;;;;6131529;23;20098;-85
2021/12/05 12:59:34;;;;;;;15.95;13.75;;;7.10;99.90;;;;;;6129280;23;19912;-85
2021/12/05 13:10:27;;;;;;;15.55;13.93;;;7.40;99.90;;;;;;6128438;23;20013;-86
2021/12/05 13:13:09;;;;;;;14.60;13.05;;;7.40;99.90;;;;;;6129563;23;20012;-87
2021/12/05 13:15:40;;;;;;;14.20;12.65;;;7.50;99.90;;;;;;6127775;23;20010;-88
2021/12/05 13:18:13;;;;;;;18.20;15.20;;;7.50;99.90;;;;;;6125835;23;20002;-86
2021/12/05 13:20:42;;;;;;;;;;;7.60;99.90;;;;;;6127322;23;20097;-87
2021/12/05 13:23:15;;;;;;;13.75;12.32;;;7.60;99.90;;;;;;6100804;23;20340;-87
2021/12/05 13:26:23;;;;;;;15.80;14.23;;;7.70;99.90;;;;;;6126037;23;20032;-86
2021/12/05 13:28:54;;;;;;;17.13;15.38;;;7.80;99.90;;;;;;6125850;23;19998;-86
2021/12/05 13:31:29;;;;;;;16.27;14.57;;;7.80;99.90;;;;;;6125650;23;20088;-86
2021/12/05 13:34:22;;;;;;;19.52;17.50;;;7.90;99.90;;;;;;6124896;23;20234;-84
2021/12/05 13:36:57;;;;;;;30.30;24.17;;;7.90;99.90;;;;;;6127738;23;20002;-86
2021/12/05 13:39:41;;;;;;;25.60;21.80;;;7.90;99.90;;;;;;6130543;23;20002;-87
2021/12/05 13:42:15;;;;;;;23.30;20.40;;;7.90;99.90;;;;;;6133726;23;20014;-89
2021/12/05 13:44:59;;;;;;;19.25;17.08;;;7.90;99.90;;;;;;6134863;23;20005;-87
2021/12/05 13:47:31;;;;;;;21.08;18.90;;;7.90;99.90;;;;;;6130504;23;20093;-88
2021/12/05 13:50:18;;;;;;;17.63;15.25;;;7.90;99.90;;;;;;6111115;23;20010;-88
2021/12/05 13:53:15;;;;;;;18.52;14.07;;;8.00;99.90;;;;;;6109888;23;20006;-88
2021/12/05 13:55:46;;;;;;;16.60;14.63;;;8.00;99.90;;;;;;6117711;23;20113;-86
2021/12/05 13:58:16;;;;;;;20.23;15.02;;;8.00;99.90;;;;;;6133284;23;20001;-86
2021/12/05 14:00:51;;;;;;;17.75;15.40;;;7.90;99.90;;;;;;6101229;23;20018;-85
2021/12/05 14:03:54;;;;;;;19.52;15.32;;;7.90;99.90;;;;;;6127828;23;20002;-85
2021/12/05 14:06:24;;;;;;;;;;;7.90;99.90;;;;;;6130393;23;20438;-85
2021/12/05 14:08:52;;;;;;;14.00;11.93;;;7.90;99.90;;;;;;6105429;23;19909;-88
2021/12/05 14:11:19;;;;;;;7.72;6.93;;;7.90;99.90;;;;;;6132241;23;19990;-86
2021/12/05 14:13:45;;;;;;;7.13;6.20;;;7.80;99.90;;;;;;6133521;23;20013;-87
2021/12/05 14:16:11;;;;;;;7.28;6.35;;;7.80;99.90;;;;;;6132661;23;20009;-87
2021/12/05 14:18:37;;;;;;;13.45;8.43;;;7.80;99.90;;;;;;6130971;23;20089;-88
2021/12/05 14:21:13;;;;;;;11.13;6.43;;;7.70;99.90;;;;;;6136860;23;20038;-86
2021/12/05 14:23:39;;;;;;;8.63;6.68;;;7.70;99.90;;;;;;6145111;23;20037;-90
2021/12/05 14:26:20;;;;;;;11.00;8.07;;;7.70;99.90;;;;;;6121500;23;20014;-87
2021/12/05 14:29:20;;;;;;;17.25;12.63;;;7.80;99.90;;;;;;6111206;23;20017;-90
2021/12/05 14:32:01;;;;;;;18.70;14.57;;;7.80;99.90;;;;;;6080181;23;20006;-90
2021/12/05 14:34:28;;;;;;;20.20;15.93;;;7.80;99.90;;;;;;6117854;23;20037;-93
2021/12/05 14:37:01;;;;;;;17.05;13.20;;;7.80;99.90;;;;;;6145898;23;20429;-90
2021/12/05 14:39:35;;;;;;;16.15;14.07;;;7.80;99.90;;;;;;6121846;23;20089;-89
2021/12/05 14:42:05;;;;;;;17.95;15.32;;;7.90;99.90;;;;;;6142552;23;20014;-88
2021/12/05 14:44:32;;;;;;;22.13;14.45;;;7.90;99.90;;;;;;6111962;23;20037;-87
2021/12/05 14:47:05;;;;;;;18.55;15.70;;;7.90;99.90;;;;;;6130964;23;19994;-91
2021/12/05 14:49:43;;;;;;;19.10;15.27;;;7.90;99.90;;;;;;6132301;23;20151;-88
2021/12/05 14:52:24;;;;;;;16.80;14.98;;;8.00;99.90;;;;;;6111181;23;20009;-92
2021/12/05 14:54:51;;;;;;;23.08;16.17;;;8.10;99.90;;;;;;6117808;23;20036;-93
2021/12/05 14:57:21;;;;;;;16.08;13.70;;;8.10;99.90;;;;;;6144626;23;20028;-94
2021/12/05 14:59:51;;;;;;;17.60;10.80;;;8.10;99.90;;;;;;6106306;23;20006;-90
2021/12/05 15:02:18;;;;;;;10.80;9.00;;;8.10;99.90;;;;;;6105917;23;20024;-86
2021/12/05 15:04:51;;;;;;;16.17;11.40;;;8.10;99.90;;;;;;6107166;23;20001;-88
2021/12/05 15:07:19;;;;;;;11.98;8.35;;;8.00;99.90;;;;;;6148438;23;20006;-90
2021/12/05 15:09:47;;;;;;;10.13;7.40;;;8.00;99.90;;;;;;6117144;23;20009;-91
2021/12/05 15:20:12;;;;;;;10.48;5.40;;;7.70;99.90;;;;;;6140145;23;20026;-88
2021/12/05 15:25:30;;;;;;;3.53;1.30;;;7.50;99.90;;;;;;6137919;23;20025;-88
2021/12/05 15:27:57;;;;;;;2.10;1.25;;;7.40;99.90;;;;;;6115017;23;20345;-91
2021/12/05 15:30:28;;;;;;;2.50;1.65;;;7.40;99.90;;;;;;6142972;23;20002;-89
2021/12/05 15:32:57;;;;;;;1.30;1.20;;;7.40;99.90;;;;;;6115558;23;20053;-88
2021/12/05 15:35:24;;;;;;;3.05;2.30;;;7.30;99.90;;;;;;6139728;23;19998;-94
2021/12/05 15:37:53;;;;;;;5.68;4.47;;;7.30;99.90;;;;;;6075715;23;1582557;-94
2021/12/05 15:40:21;;;;;;;1.20;1.02;;;7.30;99.90;;;;;;6123096;23;20016;-91
2021/12/05 15:42:47;;;;;;;1.30;1.20;;;7.20;99.90;;;;;;6119231;23;20013;-88
2021/12/05 15:45:16;;;;;;;4.13;3.35;;;7.20;99.90;;;;;;6136175;23;20010;-85
2021/12/05 15:47:44;;;;;;;3.83;2.45;;;7.10;99.90;;;;;;6128106;23;20006;-88
2021/12/05 15:50:18;;;;;;;3.88;2.35;;;7.10;99.90;;;;;;6141437;23;20002;-89
2021/12/05 15:52:52;;;;;;;1.35;1.00;;;7.10;99.90;;;;;;6134187;23;20028;-89
2021/12/05 15:55:21;;;;;;;0.82;0.75;;;7.10;99.90;;;;;;6114730;23;20076;-88
2021/12/05 16:05:32;;;;;;;1.90;0.93;;;6.90;99.90;;;;;;6143818;23;20029;-91
2021/12/05 16:23:35;;;;;;;1.58;1.10;;;6.80;99.90;;;;;;6137968;23;20030;-88
2021/12/05 16:26:06;;;;;;;3.17;1.13;;;6.80;99.90;;;;;;6142146;23;20002;-89
2021/12/05 16:28:42;;;;;;;0.68;0.50;;;6.80;99.90;;;;;;6125756;23;20319;-88
2021/12/05 16:33:57;;;;;;;1.05;0.90;;;6.80;99.90;;;;;;6129839;23;20030;-88
2021/12/05 16:36:52;;;;;;;0.77;0.77;;;6.80;99.90;;;;;;6139118;23;20006;-91
2021/12/05 16:39:43;;;;;;;1.15;0.90;;;6.80;99.90;;;;;;6114901;23;20053;-87
2021/12/05 16:44:58;;;;;;;1.20;0.90;;;6.80;99.90;;;;;;6150013;23;20013;-90
2021/12/05 16:47:29;;;;;;;0.82;0.82;;;6.80;99.90;;;;;;6123964;23;20568;-87
2021/12/05 16:49:57;;;;;;;1.08;0.85;;;6.80;99.90;;;;;;6121638;23;20022;-89
2021/12/05 16:52:34;;;;;;;1.10;0.95;;;6.70;99.90;;;;;;6115844;23;20045;-89
2021/12/05 16:55:23;;;;;;;0.57;0.50;;;6.70;99.90;;;;;;6118402;23;20438;-89
2021/12/05 16:58:08;;;;;;;0.73;0.65;;;6.70;99.90;;;;;;6079646;23;20013;-87
2021/12/05 17:00:41;;;;;;;1.77;0.90;;;6.60;99.90;;;;;;6078827;23;20358;-88
2021/12/05 17:03:07;;;;;;;;;;;6.60;99.90;;;;;;6115650;23;20013;-87
2021/12/05 17:05:43;;;;;;;4.38;0.50;;;6.60;99.90;;;;;;6084976;23;19908;-88
2021/12/05 17:08:26;;;;;;;2.00;0.70;;;6.60;99.90;;;;;;6110753;23;19998;-88
2021/12/05 17:11:08;;;;;;;0.85;0.70;;;6.60;99.90;;;;;;6109058;23;20014;-89
2021/12/05 17:13:37;;;;;;;;;;;6.60;99.90;;;;;;6107943;23;20333;-87
2021/12/05 17:16:05;;;;;;;4.60;1.33;;;6.60;99.90;;;;;;6103029;23;19940;-88
2021/12/05 17:19:08;;;;;;;0.75;0.75;;;6.60;99.90;;;;;;6106917;23;20007;-89
2021/12/05 17:21:40;;;;;;;0.75;0.40;;;6.70;99.90;;;;;;6083406;23;20022;-89
2021/12/05 17:24:12;;;;;;;;;;;6.70;99.90;;;;;;6112394;23;20465;-89
2021/12/05 17:26:41;;;;;;;2.38;1.85;;;6.80;99.90;;;;;;6110514;23;19976;-88
2021/12/05 17:29:34;;;;;;;1.40;1.30;;;6.80;99.90;;;;;;6077261;23;20110;-88
2021/12/05 17:32:05;;;;;;;1.05;0.93;;;6.80;99.90;;;;;;6102117;23;20005;-88
2021/12/05 17:34:42;;;;;;;1.10;1.00;;;6.80;99.90;;;;;;6098479;23;20536;-88
2021/12/05 17:37:11;;;;;;;0.80;0.70;;;6.80;99.90;;;;;;6071736;23;20097;-88
2021/12/05 17:39:42;;;;;;;0.93;0.73;;;6.80;99.90;;;;;;6100331;23;20003;-88
2021/12/05 17:42:18;;;;;;;0.50;0.50;;;6.80;99.90;;;;;;6106308;23;20010;-87
2021/12/05 17:44:45;;;;;;;0.68;0.68;;;6.80;99.90;;;;;;6095315;23;20046;-88
2021/12/05 17:47:13;;;;;;;0.70;0.60;;;6.80;99.90;;;;;;6076757;23;20030;-89
2021/12/05 17:49:41;;;;;;;0.68;0.60;;;6.80;99.90;;;;;;6104574;23;20077;-85
2021/12/05 17:52:10;;;;;;;0.40;0.40;;;6.70;99.90;;;;;;6102374;23;20007;-88
2021/12/05 17:54:48;;;;;;;1.38;0.28;;;6.60;99.90;;;;;;6105259;23;20434;-86
2021/12/05 17:57:19;;;;;;;1.55;0.50;;;6.60;99.90;;;;;;6075701;23;20061;-88
2021/12/05 18:05:00;;;;;;;0.88;0.70;;;6.80;99.90;;;;;;6104480;23;20050;-87
2021/12/05 18:07:26;;;;;;;0.30;0.30;;;6.80;99.90;;;;;;6077942;23;20010;-89
2021/12/05 18:09:52;;;;;;;0.68;0.68;;;6.90;99.90;;;;;;6101843;23;20379;-90
2021/12/05 18:12:21;;;;;;;6.07;2.47;;;6.90;99.90;;;;;;6105071;23;20006;-88
2021/12/05 18:14:53;;;;;;;9.27;4.57;;;6.90;99.90;;;;;;6102168;23;20007;-85
2021/12/05 18:17:19;;;;;;;3.00;1.73;;;6.90;99.90;;;;;;6083120;23;20006;-89
2021/12/05 18:19:45;;;;;;;6.88;2.67;;;6.90;99.90;;;;;;6102293;23;20010;-89
2021/12/05 18:22:12;;;;;;;4.50;2.55;;;6.90;99.90;;;;;;6102423;23;20010;-84
2021/12/05 18:24:38;;;;;;;4.60;2.13;;;6.90;99.90;;;;;;6098557;23;20013;-91
2021/12/05 18:27:04;;;;;;;7.80;7.03;;;6.90;99.90;;;;;;6099375;23;20056;-88
2021/12/05 18:29:30;;;;;;;1.05;0.65;;;6.90;99.90;;;;;;6073162;23;20057;-87
2021/12/05 18:31:57;;;;;;;2.17;1.58;;;6.90;99.90;;;;;;6098877;23;20006;-83
2021/12/05 18:34:29;;;;;;;1.35;0.90;;;6.80;99.90;;;;;;6074221;23;20038;-88
2021/12/05 18:36:58;;;;;;;3.15;1.40;;;6.80;99.90;;;;;;6104427;23;20006;-88
2021/12/05 18:39:28;;;;;;;12.18;7.05;;;6.80;99.90;;;;;;6102077;23;20007;-88
2021/12/05 18:42:02;;;;;;;1.90;1.10;;;6.90;99.90;;;;;;6110322;23;20010;-92
2021/12/05 18:44:30;;;;;;;2.08;1.00;;;6.90;99.90;;;;;;6112097;23;20022;-90
2021/12/05 18:46:57;;;;;;;12.82;4.53;;;7.00;99.90;;;;;;6107530;23;20093;-87
2021/12/05 18:49:26;;;;;;;2.08;0.60;;;7.00;99.90;;;;;;6085866;23;20802;-87
2021/12/05 18:51:52;;;;;;;0.60;0.52;;;7.00;99.90;;;;;;6108724;23;20074;-86
2021/12/05 18:54:19;;;;;;;0.73;0.70;;;7.00;99.90;;;;;;6102438;23;20003;-84
2021/12/05 18:56:46;;;;;;;1.23;0.60;;;7.00;99.90;;;;;;6106418;23;20015;-90
2021/12/05 18:59:12;;;;;;;2.83;0.90;;;7.00;99.90;;;;;;6112936;23;20037;-89
2021/12/05 19:04:33;;;;;;;1.00;0.55;;;7.00;99.90;;;;;;6115391;23;20013;-86
2021/12/05 19:07:09;;;;;;;0.38;0.38;;;7.00;99.90;;;;;;6118168;23;20121;-89
2021/12/05 19:12:11;;;;;;;1.10;0.60;;;7.00;99.90;;;;;;6116039;23;20462;-89
2021/12/05 19:14:43;;;;;;;0.30;0.30;;;7.00;99.90;;;;;;6112242;23;20002;-87
2021/12/05 19:17:13;;;;;;;0.30;0.30;;;6.90;99.90;;;;;;6108879;23;20017;-87